sensor_id;sensor_type;location;lat;lon;timestamp;P1;durP1;ratioP1;P2;durP2;ratioP2
22131;SDS011;11232;51.748;19.390;2023-04-06T00:00:36;21.43;;;8.00;;
22131;SDS011;11232;51.748;19.390;2023-04-06T00:03:02;16.03;;;7.50;;
22131;SDS011;11232;51.748;19.390;2023-04-06T00:05:28;19.10;;;8.87;;
22131;SDS011;11232;51.748;19.390;2023-04-06T00:07:56;20.17;;;8.77;;
22131;SDS011;11232;51.748;19.390;2023-04-06T00:10:22;19.60;;;7.93;;
22131;SDS011;11232;51.748;19.390;2023-04-06T00:12:48;22.17;;;8.63;;
22131;SDS011;11232;51.748;19.390;2023-04-06T00:15:14;19.40;;;8.77;;
22131;SDS011;11232;51.748;19.390;2023-04-06T00:17:40;22.57;;;8.30;;
22131;SDS011;11232;51.748;19.390;2023-04-06T00:20:06;17.40;;;8.13;;
22131;SDS011;11232;51.748;19.390;2023-04-06T00:22:33;26.40;;;9.97;;
22131;SDS011;11232;51.748;19.390;2023-04-06T00:24:59;19.90;;;8.70;;
22131;SDS011;11232;51.748;19.390;2023-04-06T00:27:25;23.57;;;9.00;;
22131;SDS011;11232;51.748;19.390;2023-04-06T00:29:51;23.17;;;9.13;;
22131;SDS011;11232;51.748;19.390;2023-04-06T00:32:17;21.60;;;8.53;;
22131;SDS011;11232;51.748;19.390;2023-04-06T00:34:43;20.97;;;9.00;;
22131;SDS011;11232;51.748;19.390;2023-04-06T00:37:10;21.30;;;8.43;;
22131;SDS011;11232;51.748;19.390;2023-04-06T00:39:36;15.77;;;8.00;;
22131;SDS011;11232;51.748;19.390;2023-04-06T00:42:06;17.30;;;7.90;;
22131;SDS011;11232;51.748;19.390;2023-04-06T00:44:33;18.57;;;8.13;;
22131;SDS011;11232;51.748;19.390;2023-04-06T00:46:59;21.77;;;8.60;;
22131;SDS011;11232;51.748;19.390;2023-04-06T00:49:25;19.73;;;8.80;;
22131;SDS011;11232;51.748;19.390;2023-04-06T00:51:52;21.67;;;8.67;;
22131;SDS011;11232;51.748;19.390;2023-04-06T00:54:18;20.93;;;8.07;;
22131;SDS011;11232;51.748;19.390;2023-04-06T00:56:44;21.43;;;7.80;;
22131;SDS011;11232;51.748;19.390;2023-04-06T00:59:10;18.20;;;7.90;;
22131;SDS011;11232;51.748;19.390;2023-04-06T01:01:36;20.13;;;8.67;;
22131;SDS011;11232;51.748;19.390;2023-04-06T01:04:02;20.33;;;7.70;;
22131;SDS011;11232;51.748;19.390;2023-04-06T01:06:28;19.80;;;9.33;;
22131;SDS011;11232;51.748;19.390;2023-04-06T01:08:54;19.17;;;9.10;;
22131;SDS011;11232;51.748;19.390;2023-04-06T01:11:21;24.00;;;9.33;;
22131;SDS011;11232;51.748;19.390;2023-04-06T01:13:46;23.50;;;9.80;;
22131;SDS011;11232;51.748;19.390;2023-04-06T01:16:13;17.73;;;8.10;;
22131;SDS011;11232;51.748;19.390;2023-04-06T01:18:39;26.63;;;9.97;;
22131;SDS011;11232;51.748;19.390;2023-04-06T01:21:05;17.57;;;8.30;;
22131;SDS011;11232;51.748;19.390;2023-04-06T01:23:33;23.50;;;9.70;;
22131;SDS011;11232;51.748;19.390;2023-04-06T01:25:59;17.80;;;8.77;;
22131;SDS011;11232;51.748;19.390;2023-04-06T01:28:25;26.43;;;8.97;;
22131;SDS011;11232;51.748;19.390;2023-04-06T01:30:51;17.13;;;8.20;;
22131;SDS011;11232;51.748;19.390;2023-04-06T01:33:17;25.07;;;8.70;;
22131;SDS011;11232;51.748;19.390;2023-04-06T01:35:43;22.00;;;8.90;;
22131;SDS011;11232;51.748;19.390;2023-04-06T01:38:09;20.50;;;8.93;;
22131;SDS011;11232;51.748;19.390;2023-04-06T01:40:35;22.40;;;8.87;;
22131;SDS011;11232;51.748;19.390;2023-04-06T01:43:01;19.00;;;8.73;;
22131;SDS011;11232;51.748;19.390;2023-04-06T01:45:27;19.83;;;9.87;;
22131;SDS011;11232;51.748;19.390;2023-04-06T01:47:53;23.70;;;9.87;;
22131;SDS011;11232;51.748;19.390;2023-04-06T01:50:19;20.53;;;8.77;;
22131;SDS011;11232;51.748;19.390;2023-04-06T01:52:46;26.30;;;9.63;;
22131;SDS011;11232;51.748;19.390;2023-04-06T01:55:11;19.03;;;8.33;;
22131;SDS011;11232;51.748;19.390;2023-04-06T01:57:37;22.40;;;8.50;;
22131;SDS011;11232;51.748;19.390;2023-04-06T02:00:04;23.40;;;8.77;;
22131;SDS011;11232;51.748;19.390;2023-04-06T02:02:30;18.80;;;9.13;;
22131;SDS011;11232;51.748;19.390;2023-04-06T02:04:56;24.73;;;8.77;;
22131;SDS011;11232;51.748;19.390;2023-04-06T02:07:22;21.27;;;10.03;;
22131;SDS011;11232;51.748;19.390;2023-04-06T02:09:48;19.37;;;9.40;;
22131;SDS011;11232;51.748;19.390;2023-04-06T02:12:14;24.73;;;9.90;;
22131;SDS011;11232;51.748;19.390;2023-04-06T02:14:40;21.20;;;9.23;;
22131;SDS011;11232;51.748;19.390;2023-04-06T02:17:06;24.73;;;9.47;;
22131;SDS011;11232;51.748;19.390;2023-04-06T02:19:32;21.60;;;9.40;;
22131;SDS011;11232;51.748;19.390;2023-04-06T02:21:58;21.53;;;9.57;;
22131;SDS011;11232;51.748;19.390;2023-04-06T02:24:24;18.10;;;9.43;;
22131;SDS011;11232;51.748;19.390;2023-04-06T02:26:50;17.40;;;9.20;;
22131;SDS011;11232;51.748;19.390;2023-04-06T02:29:16;23.67;;;9.57;;
22131;SDS011;11232;51.748;19.390;2023-04-06T02:31:42;21.83;;;10.33;;
22131;SDS011;11232;51.748;19.390;2023-04-06T02:34:08;18.30;;;8.47;;
22131;SDS011;11232;51.748;19.390;2023-04-06T02:36:36;26.57;;;9.67;;
22131;SDS011;11232;51.748;19.390;2023-04-06T02:39:02;23.83;;;10.10;;
22131;SDS011;11232;51.748;19.390;2023-04-06T02:41:28;23.83;;;9.93;;
22131;SDS011;11232;51.748;19.390;2023-04-06T02:43:54;25.43;;;10.57;;
22131;SDS011;11232;51.748;19.390;2023-04-06T02:46:20;26.37;;;10.57;;
22131;SDS011;11232;51.748;19.390;2023-04-06T02:48:46;22.57;;;10.17;;
22131;SDS011;11232;51.748;19.390;2023-04-06T02:51:12;24.83;;;10.57;;
22131;SDS011;11232;51.748;19.390;2023-04-06T02:53:38;24.27;;;10.70;;
22131;SDS011;11232;51.748;19.390;2023-04-06T02:56:04;24.13;;;10.40;;
22131;SDS011;11232;51.748;19.390;2023-04-06T02:58:30;22.80;;;9.70;;
22131;SDS011;11232;51.748;19.390;2023-04-06T03:00:57;21.47;;;10.07;;
22131;SDS011;11232;51.748;19.390;2023-04-06T03:03:23;24.97;;;11.03;;
22131;SDS011;11232;51.748;19.390;2023-04-06T03:05:49;26.67;;;10.63;;
22131;SDS011;11232;51.748;19.390;2023-04-06T03:08:15;23.93;;;10.83;;
22131;SDS011;11232;51.748;19.390;2023-04-06T03:10:41;22.23;;;11.03;;
22131;SDS011;11232;51.748;19.390;2023-04-06T03:13:07;27.37;;;11.07;;
22131;SDS011;11232;51.748;19.390;2023-04-06T03:15:33;23.43;;;10.63;;
22131;SDS011;11232;51.748;19.390;2023-04-06T03:17:59;26.97;;;10.47;;
22131;SDS011;11232;51.748;19.390;2023-04-06T03:20:25;20.80;;;9.90;;
22131;SDS011;11232;51.748;19.390;2023-04-06T03:22:51;24.97;;;10.47;;
22131;SDS011;11232;51.748;19.390;2023-04-06T03:25:17;20.77;;;10.13;;
22131;SDS011;11232;51.748;19.390;2023-04-06T03:27:43;22.27;;;10.03;;
22131;SDS011;11232;51.748;19.390;2023-04-06T03:30:09;33.43;;;11.90;;
22131;SDS011;11232;51.748;19.390;2023-04-06T03:32:35;26.93;;;11.17;;
22131;SDS011;11232;51.748;19.390;2023-04-06T03:35:01;27.67;;;11.10;;
22131;SDS011;11232;51.748;19.390;2023-04-06T03:37:27;23.93;;;10.60;;
22131;SDS011;11232;51.748;19.390;2023-04-06T03:39:53;23.30;;;10.70;;
22131;SDS011;11232;51.748;19.390;2023-04-06T03:42:19;28.00;;;11.60;;
22131;SDS011;11232;51.748;19.390;2023-04-06T03:44:45;26.17;;;11.13;;
22131;SDS011;11232;51.748;19.390;2023-04-06T03:47:11;27.43;;;11.77;;
22131;SDS011;11232;51.748;19.390;2023-04-06T03:49:37;30.63;;;12.53;;
22131;SDS011;11232;51.748;19.390;2023-04-06T03:52:03;33.13;;;14.40;;
22131;SDS011;11232;51.748;19.390;2023-04-06T03:54:29;35.57;;;13.07;;
22131;SDS011;11232;51.748;19.390;2023-04-06T03:56:55;28.90;;;13.17;;
22131;SDS011;11232;51.748;19.390;2023-04-06T03:59:21;28.47;;;13.07;;
22131;SDS011;11232;51.748;19.390;2023-04-06T04:01:47;26.63;;;11.83;;
22131;SDS011;11232;51.748;19.390;2023-04-06T04:04:13;23.10;;;11.63;;
22131;SDS011;11232;51.748;19.390;2023-04-06T04:06:39;28.87;;;11.83;;
22131;SDS011;11232;51.748;19.390;2023-04-06T04:09:05;24.67;;;11.30;;
22131;SDS011;11232;51.748;19.390;2023-04-06T04:11:31;27.07;;;12.83;;
22131;SDS011;11232;51.748;19.390;2023-04-06T04:13:57;31.00;;;13.57;;
22131;SDS011;11232;51.748;19.390;2023-04-06T04:16:23;41.70;;;13.67;;
22131;SDS011;11232;51.748;19.390;2023-04-06T04:18:50;26.90;;;12.00;;
22131;SDS011;11232;51.748;19.390;2023-04-06T04:21:16;29.73;;;13.57;;
22131;SDS011;11232;51.748;19.390;2023-04-06T04:23:42;29.60;;;12.60;;
22131;SDS011;11232;51.748;19.390;2023-04-06T04:26:08;28.13;;;12.70;;
22131;SDS011;11232;51.748;19.390;2023-04-06T04:28:34;27.30;;;12.90;;
22131;SDS011;11232;51.748;19.390;2023-04-06T04:31:00;24.20;;;11.07;;
22131;SDS011;11232;51.748;19.390;2023-04-06T04:33:26;24.43;;;12.43;;
22131;SDS011;11232;51.748;19.390;2023-04-06T04:35:52;34.30;;;12.47;;
22131;SDS011;11232;51.748;19.390;2023-04-06T04:38:18;26.10;;;12.93;;
22131;SDS011;11232;51.748;19.390;2023-04-06T04:40:44;32.57;;;13.90;;
22131;SDS011;11232;51.748;19.390;2023-04-06T04:43:10;37.77;;;14.00;;
22131;SDS011;11232;51.748;19.390;2023-04-06T04:45:36;31.83;;;13.67;;
22131;SDS011;11232;51.748;19.390;2023-04-06T04:48:02;38.70;;;15.43;;
22131;SDS011;11232;51.748;19.390;2023-04-06T04:50:29;34.27;;;15.03;;
22131;SDS011;11232;51.748;19.390;2023-04-06T04:52:55;45.63;;;16.87;;
22131;SDS011;11232;51.748;19.390;2023-04-06T04:55:21;44.47;;;17.20;;
22131;SDS011;11232;51.748;19.390;2023-04-06T04:57:47;33.07;;;15.57;;
22131;SDS011;11232;51.748;19.390;2023-04-06T05:00:13;39.13;;;16.13;;
22131;SDS011;11232;51.748;19.390;2023-04-06T05:02:40;38.73;;;16.10;;
22131;SDS011;11232;51.748;19.390;2023-04-06T05:05:06;38.70;;;16.80;;
22131;SDS011;11232;51.748;19.390;2023-04-06T05:07:32;34.93;;;15.70;;
22131;SDS011;11232;51.748;19.390;2023-04-06T05:09:58;42.17;;;15.87;;
22131;SDS011;11232;51.748;19.390;2023-04-06T05:12:24;36.87;;;15.37;;
22131;SDS011;11232;51.748;19.390;2023-04-06T05:14:52;40.07;;;16.00;;
22131;SDS011;11232;51.748;19.390;2023-04-06T05:17:18;32.53;;;14.83;;
22131;SDS011;11232;51.748;19.390;2023-04-06T05:19:44;32.27;;;14.27;;
22131;SDS011;11232;51.748;19.390;2023-04-06T05:22:11;32.27;;;14.33;;
22131;SDS011;11232;51.748;19.390;2023-04-06T05:24:39;33.07;;;13.63;;
22131;SDS011;11232;51.748;19.390;2023-04-06T05:27:05;26.90;;;12.83;;
22131;SDS011;11232;51.748;19.390;2023-04-06T05:29:31;29.20;;;11.37;;
22131;SDS011;11232;51.748;19.390;2023-04-06T05:31:57;24.83;;;11.80;;
22131;SDS011;11232;51.748;19.390;2023-04-06T05:34:23;26.77;;;11.90;;
22131;SDS011;11232;51.748;19.390;2023-04-06T05:36:49;26.67;;;11.90;;
22131;SDS011;11232;51.748;19.390;2023-04-06T05:39:15;23.60;;;11.70;;
22131;SDS011;11232;51.748;19.390;2023-04-06T05:41:41;20.60;;;10.87;;
22131;SDS011;11232;51.748;19.390;2023-04-06T05:44:07;26.20;;;11.40;;
22131;SDS011;11232;51.748;19.390;2023-04-06T05:46:33;32.67;;;11.57;;
22131;SDS011;11232;51.748;19.390;2023-04-06T05:48:59;27.67;;;12.10;;
22131;SDS011;11232;51.748;19.390;2023-04-06T05:51:25;28.27;;;10.93;;
22131;SDS011;11232;51.748;19.390;2023-04-06T05:53:52;18.03;;;10.83;;
22131;SDS011;11232;51.748;19.390;2023-04-06T05:56:18;28.13;;;11.00;;
22131;SDS011;11232;51.748;19.390;2023-04-06T05:58:44;23.07;;;10.77;;
22131;SDS011;11232;51.748;19.390;2023-04-06T06:01:10;26.20;;;10.97;;
22131;SDS011;11232;51.748;19.390;2023-04-06T06:03:36;23.70;;;9.90;;
22131;SDS011;11232;51.748;19.390;2023-04-06T06:06:02;29.07;;;11.80;;
22131;SDS011;11232;51.748;19.390;2023-04-06T06:08:29;26.27;;;11.87;;
22131;SDS011;11232;51.748;19.390;2023-04-06T06:10:56;32.93;;;10.83;;
22131;SDS011;11232;51.748;19.390;2023-04-06T06:13:22;23.33;;;9.87;;
22131;SDS011;11232;51.748;19.390;2023-04-06T06:15:48;24.57;;;10.10;;
22131;SDS011;11232;51.748;19.390;2023-04-06T06:18:14;21.10;;;9.80;;
22131;SDS011;11232;51.748;19.390;2023-04-06T06:20:40;26.57;;;10.93;;
22131;SDS011;11232;51.748;19.390;2023-04-06T06:23:06;22.23;;;10.47;;
22131;SDS011;11232;51.748;19.390;2023-04-06T06:25:32;27.03;;;11.20;;
22131;SDS011;11232;51.748;19.390;2023-04-06T06:27:58;26.30;;;10.93;;
22131;SDS011;11232;51.748;19.390;2023-04-06T06:30:25;22.83;;;10.87;;
22131;SDS011;11232;51.748;19.390;2023-04-06T06:32:51;21.97;;;10.30;;
22131;SDS011;11232;51.748;19.390;2023-04-06T06:35:17;27.07;;;10.93;;
22131;SDS011;11232;51.748;19.390;2023-04-06T06:37:43;29.07;;;9.23;;
22131;SDS011;11232;51.748;19.390;2023-04-06T06:40:09;26.63;;;8.97;;
22131;SDS011;11232;51.748;19.390;2023-04-06T06:42:38;18.80;;;8.97;;
22131;SDS011;11232;51.748;19.390;2023-04-06T06:45:05;29.13;;;9.43;;
22131;SDS011;11232;51.748;19.390;2023-04-06T06:47:31;19.47;;;8.40;;
22131;SDS011;11232;51.748;19.390;2023-04-06T06:49:57;19.17;;;8.57;;
22131;SDS011;11232;51.748;19.390;2023-04-06T06:52:23;21.53;;;8.60;;
22131;SDS011;11232;51.748;19.390;2023-04-06T06:54:49;17.23;;;9.77;;
22131;SDS011;11232;51.748;19.390;2023-04-06T06:57:15;19.73;;;10.13;;
22131;SDS011;11232;51.748;19.390;2023-04-06T06:59:41;21.40;;;9.40;;
22131;SDS011;11232;51.748;19.390;2023-04-06T07:02:07;20.13;;;9.07;;
22131;SDS011;11232;51.748;19.390;2023-04-06T07:04:33;26.93;;;9.50;;
22131;SDS011;11232;51.748;19.390;2023-04-06T07:06:59;26.20;;;10.63;;
22131;SDS011;11232;51.748;19.390;2023-04-06T07:09:26;23.03;;;9.87;;
22131;SDS011;11232;51.748;19.390;2023-04-06T07:11:52;19.77;;;8.43;;
22131;SDS011;11232;51.748;19.390;2023-04-06T07:14:19;17.90;;;8.93;;
22131;SDS011;11232;51.748;19.390;2023-04-06T07:16:45;18.07;;;8.90;;
22131;SDS011;11232;51.748;19.390;2023-04-06T07:19:11;23.60;;;9.67;;
22131;SDS011;11232;51.748;19.390;2023-04-06T07:21:37;21.17;;;9.30;;
22131;SDS011;11232;51.748;19.390;2023-04-06T07:24:03;21.93;;;10.10;;
22131;SDS011;11232;51.748;19.390;2023-04-06T07:26:29;22.33;;;9.63;;
22131;SDS011;11232;51.748;19.390;2023-04-06T07:28:55;22.63;;;10.30;;
22131;SDS011;11232;51.748;19.390;2023-04-06T07:31:22;24.10;;;11.00;;
22131;SDS011;11232;51.748;19.390;2023-04-06T07:33:47;22.27;;;10.30;;
22131;SDS011;11232;51.748;19.390;2023-04-06T07:36:14;23.20;;;11.10;;
22131;SDS011;11232;51.748;19.390;2023-04-06T07:38:40;19.73;;;8.70;;
22131;SDS011;11232;51.748;19.390;2023-04-06T07:41:07;18.27;;;9.53;;
22131;SDS011;11232;51.748;19.390;2023-04-06T07:43:33;15.90;;;7.77;;
22131;SDS011;11232;51.748;19.390;2023-04-06T07:45:59;22.80;;;8.50;;
22131;SDS011;11232;51.748;19.390;2023-04-06T07:48:25;16.97;;;8.33;;
22131;SDS011;11232;51.748;19.390;2023-04-06T07:50:51;16.63;;;8.13;;
22131;SDS011;11232;51.748;19.390;2023-04-06T07:53:17;12.53;;;7.33;;
22131;SDS011;11232;51.748;19.390;2023-04-06T07:55:43;16.07;;;7.20;;
22131;SDS011;11232;51.748;19.390;2023-04-06T07:58:09;15.77;;;7.17;;
22131;SDS011;11232;51.748;19.390;2023-04-06T08:00:35;14.90;;;7.13;;
22131;SDS011;11232;51.748;19.390;2023-04-06T08:03:01;12.03;;;6.30;;
22131;SDS011;11232;51.748;19.390;2023-04-06T08:05:27;13.53;;;6.10;;
22131;SDS011;11232;51.748;19.390;2023-04-06T08:07:53;18.67;;;6.57;;
22131;SDS011;11232;51.748;19.390;2023-04-06T08:10:19;12.77;;;6.40;;
22131;SDS011;11232;51.748;19.390;2023-04-06T08:12:45;12.73;;;5.93;;
22131;SDS011;11232;51.748;19.390;2023-04-06T08:15:11;14.83;;;6.33;;
22131;SDS011;11232;51.748;19.390;2023-04-06T08:17:37;9.03;;;5.27;;
22131;SDS011;11232;51.748;19.390;2023-04-06T08:20:03;8.93;;;4.17;;
22131;SDS011;11232;51.748;19.390;2023-04-06T08:22:30;9.90;;;4.63;;
22131;SDS011;11232;51.748;19.390;2023-04-06T08:24:56;8.23;;;4.30;;
22131;SDS011;11232;51.748;19.390;2023-04-06T08:27:22;8.03;;;4.37;;
22131;SDS011;11232;51.748;19.390;2023-04-06T08:29:49;9.10;;;5.00;;
22131;SDS011;11232;51.748;19.390;2023-04-06T08:32:16;8.20;;;3.80;;
22131;SDS011;11232;51.748;19.390;2023-04-06T08:34:42;5.83;;;3.40;;
22131;SDS011;11232;51.748;19.390;2023-04-06T08:37:08;6.60;;;3.40;;
22131;SDS011;11232;51.748;19.390;2023-04-06T08:39:34;8.20;;;3.53;;
22131;SDS011;11232;51.748;19.390;2023-04-06T08:42:00;6.10;;;3.50;;
22131;SDS011;11232;51.748;19.390;2023-04-06T08:44:28;6.50;;;4.10;;
22131;SDS011;11232;51.748;19.390;2023-04-06T08:46:54;7.23;;;3.90;;
22131;SDS011;11232;51.748;19.390;2023-04-06T08:49:20;7.40;;;4.03;;
22131;SDS011;11232;51.748;19.390;2023-04-06T08:51:47;6.23;;;3.80;;
22131;SDS011;11232;51.748;19.390;2023-04-06T08:54:13;5.60;;;3.20;;
22131;SDS011;11232;51.748;19.390;2023-04-06T08:56:39;8.17;;;2.80;;
22131;SDS011;11232;51.748;19.390;2023-04-06T08:59:05;4.53;;;3.00;;
22131;SDS011;11232;51.748;19.390;2023-04-06T09:01:32;7.03;;;2.80;;
22131;SDS011;11232;51.748;19.390;2023-04-06T09:03:59;4.53;;;2.73;;
22131;SDS011;11232;51.748;19.390;2023-04-06T09:06:26;7.27;;;2.60;;
22131;SDS011;11232;51.748;19.390;2023-04-06T09:08:52;4.67;;;2.20;;
22131;SDS011;11232;51.748;19.390;2023-04-06T09:11:19;4.90;;;2.87;;
22131;SDS011;11232;51.748;19.390;2023-04-06T09:16:15;5.77;;;2.90;;
22131;SDS011;11232;51.748;19.390;2023-04-06T09:18:41;5.67;;;2.70;;
22131;SDS011;11232;51.748;19.390;2023-04-06T09:21:08;5.53;;;2.73;;
22131;SDS011;11232;51.748;19.390;2023-04-06T09:23:34;5.43;;;3.03;;
22131;SDS011;11232;51.748;19.390;2023-04-06T09:26:10;6.10;;;4.07;;
22131;SDS011;11232;51.748;19.390;2023-04-06T09:28:43;11.40;;;3.43;;
22131;SDS011;11232;51.748;19.390;2023-04-06T09:31:10;4.80;;;3.30;;
22131;SDS011;11232;51.748;19.390;2023-04-06T09:33:45;6.77;;;3.80;;
22131;SDS011;11232;51.748;19.390;2023-04-06T09:36:11;5.80;;;3.47;;
22131;SDS011;11232;51.748;19.390;2023-04-06T09:39:01;6.67;;;3.17;;
22131;SDS011;11232;51.748;19.390;2023-04-06T09:41:27;7.07;;;3.33;;
22131;SDS011;11232;51.748;19.390;2023-04-06T09:44:05;6.33;;;3.33;;
22131;SDS011;11232;51.748;19.390;2023-04-06T09:46:32;8.27;;;3.90;;
22131;SDS011;11232;51.748;19.390;2023-04-06T09:48:59;7.73;;;3.50;;
22131;SDS011;11232;51.748;19.390;2023-04-06T09:51:26;5.23;;;3.33;;
22131;SDS011;11232;51.748;19.390;2023-04-06T09:53:54;6.27;;;3.47;;
22131;SDS011;11232;51.748;19.390;2023-04-06T09:56:26;5.47;;;3.50;;
22131;SDS011;11232;51.748;19.390;2023-04-06T09:58:55;7.20;;;4.10;;
22131;SDS011;11232;51.748;19.390;2023-04-06T10:01:22;8.37;;;3.80;;
22131;SDS011;11232;51.748;19.390;2023-04-06T10:03:54;5.87;;;3.20;;
22131;SDS011;11232;51.748;19.390;2023-04-06T10:06:22;5.77;;;3.03;;
22131;SDS011;11232;51.748;19.390;2023-04-06T10:08:51;4.63;;;3.00;;
22131;SDS011;11232;51.748;19.390;2023-04-06T10:11:19;5.97;;;3.27;;
22131;SDS011;11232;51.748;19.390;2023-04-06T10:13:45;5.33;;;3.20;;
22131;SDS011;11232;51.748;19.390;2023-04-06T10:16:14;7.10;;;3.53;;
22131;SDS011;11232;51.748;19.390;2023-04-06T10:18:41;5.77;;;3.50;;
22131;SDS011;11232;51.748;19.390;2023-04-06T10:21:11;6.10;;;3.30;;
22131;SDS011;11232;51.748;19.390;2023-04-06T10:23:44;10.03;;;3.20;;
22131;SDS011;11232;51.748;19.390;2023-04-06T10:26:14;6.30;;;3.03;;
22131;SDS011;11232;51.748;19.390;2023-04-06T10:28:41;4.77;;;3.27;;
22131;SDS011;11232;51.748;19.390;2023-04-06T10:31:08;5.40;;;2.90;;
22131;SDS011;11232;51.748;19.390;2023-04-06T10:33:34;4.30;;;2.87;;
22131;SDS011;11232;51.748;19.390;2023-04-06T10:36:12;6.43;;;3.20;;
22131;SDS011;11232;51.748;19.390;2023-04-06T10:38:40;5.00;;;3.30;;
22131;SDS011;11232;51.748;19.390;2023-04-06T10:41:10;4.93;;;3.17;;
22131;SDS011;11232;51.748;19.390;2023-04-06T10:43:37;4.20;;;2.90;;
22131;SDS011;11232;51.748;19.390;2023-04-06T10:46:04;5.17;;;2.97;;
22131;SDS011;11232;51.748;19.390;2023-04-06T10:48:40;6.57;;;3.10;;
22131;SDS011;11232;51.748;19.390;2023-04-06T10:51:10;6.60;;;3.03;;
22131;SDS011;11232;51.748;19.390;2023-04-06T10:53:36;4.87;;;3.37;;
22131;SDS011;11232;51.748;19.390;2023-04-06T10:56:02;6.60;;;3.53;;
22131;SDS011;11232;51.748;19.390;2023-04-06T10:58:29;10.70;;;3.70;;
22131;SDS011;11232;51.748;19.390;2023-04-06T11:00:55;8.03;;;3.40;;
22131;SDS011;11232;51.748;19.390;2023-04-06T11:03:22;5.63;;;3.70;;
22131;SDS011;11232;51.748;19.390;2023-04-06T11:05:48;5.13;;;3.50;;
22131;SDS011;11232;51.748;19.390;2023-04-06T11:08:25;7.43;;;3.40;;
22131;SDS011;11232;51.748;19.390;2023-04-06T11:10:51;5.67;;;3.67;;
22131;SDS011;11232;51.748;19.390;2023-04-06T11:13:17;6.00;;;3.40;;
22131;SDS011;11232;51.748;19.390;2023-04-06T11:15:43;6.87;;;3.40;;
22131;SDS011;11232;51.748;19.390;2023-04-06T11:18:10;4.37;;;2.90;;
22131;SDS011;11232;51.748;19.390;2023-04-06T11:20:36;7.07;;;3.77;;
22131;SDS011;11232;51.748;19.390;2023-04-06T11:23:02;5.40;;;2.97;;
22131;SDS011;11232;51.748;19.390;2023-04-06T11:25:28;6.27;;;3.40;;
22131;SDS011;11232;51.748;19.390;2023-04-06T11:27:57;5.50;;;3.10;;
22131;SDS011;11232;51.748;19.390;2023-04-06T11:30:23;4.43;;;3.20;;
22131;SDS011;11232;51.748;19.390;2023-04-06T11:32:49;6.03;;;3.27;;
22131;SDS011;11232;51.748;19.390;2023-04-06T11:35:22;5.73;;;3.43;;
22131;SDS011;11232;51.748;19.390;2023-04-06T11:37:49;7.67;;;3.80;;
22131;SDS011;11232;51.748;19.390;2023-04-06T11:40:15;6.03;;;3.60;;
22131;SDS011;11232;51.748;19.390;2023-04-06T11:42:41;5.27;;;3.43;;
22131;SDS011;11232;51.748;19.390;2023-04-06T11:45:07;9.50;;;4.20;;
22131;SDS011;11232;51.748;19.390;2023-04-06T11:47:34;7.87;;;3.80;;
22131;SDS011;11232;51.748;19.390;2023-04-06T11:50:10;7.63;;;4.33;;
22131;SDS011;11232;51.748;19.390;2023-04-06T11:52:37;7.73;;;4.37;;
22131;SDS011;11232;51.748;19.390;2023-04-06T11:55:14;5.57;;;3.80;;
22131;SDS011;11232;51.748;19.390;2023-04-06T11:57:40;9.83;;;4.63;;
22131;SDS011;11232;51.748;19.390;2023-04-06T12:00:07;5.67;;;3.87;;
22131;SDS011;11232;51.748;19.390;2023-04-06T12:02:34;6.47;;;3.60;;
22131;SDS011;11232;51.748;19.390;2023-04-06T12:05:01;8.13;;;4.00;;
22131;SDS011;11232;51.748;19.390;2023-04-06T12:07:28;6.13;;;3.83;;
22131;SDS011;11232;51.748;19.390;2023-04-06T12:09:54;7.70;;;4.07;;
22131;SDS011;11232;51.748;19.390;2023-04-06T12:12:20;6.63;;;3.67;;
22131;SDS011;11232;51.748;19.390;2023-04-06T12:14:46;6.00;;;3.83;;
22131;SDS011;11232;51.748;19.390;2023-04-06T12:17:12;5.57;;;3.87;;
22131;SDS011;11232;51.748;19.390;2023-04-06T12:19:38;6.90;;;3.93;;
22131;SDS011;11232;51.748;19.390;2023-04-06T12:22:04;10.03;;;4.00;;
22131;SDS011;11232;51.748;19.390;2023-04-06T12:24:30;8.53;;;4.40;;
22131;SDS011;11232;51.748;19.390;2023-04-06T12:26:56;7.13;;;3.83;;
22131;SDS011;11232;51.748;19.390;2023-04-06T12:29:23;9.53;;;3.97;;
22131;SDS011;11232;51.748;19.390;2023-04-06T12:31:50;6.87;;;3.70;;
22131;SDS011;11232;51.748;19.390;2023-04-06T12:34:16;5.63;;;3.43;;
22131;SDS011;11232;51.748;19.390;2023-04-06T12:36:42;5.73;;;4.00;;
22131;SDS011;11232;51.748;19.390;2023-04-06T12:39:08;7.23;;;4.27;;
22131;SDS011;11232;51.748;19.390;2023-04-06T12:41:34;9.27;;;4.27;;
22131;SDS011;11232;51.748;19.390;2023-04-06T12:44:00;7.57;;;4.13;;
22131;SDS011;11232;51.748;19.390;2023-04-06T12:46:27;5.40;;;3.83;;
22131;SDS011;11232;51.748;19.390;2023-04-06T12:48:55;7.70;;;4.10;;
22131;SDS011;11232;51.748;19.390;2023-04-06T12:51:23;9.50;;;4.53;;
22131;SDS011;11232;51.748;19.390;2023-04-06T12:53:49;6.20;;;4.30;;
22131;SDS011;11232;51.748;19.390;2023-04-06T12:56:16;5.67;;;4.20;;
22131;SDS011;11232;51.748;19.390;2023-04-06T12:58:42;5.93;;;4.17;;
22131;SDS011;11232;51.748;19.390;2023-04-06T13:01:08;8.50;;;3.63;;
22131;SDS011;11232;51.748;19.390;2023-04-06T13:03:36;7.97;;;4.43;;
22131;SDS011;11232;51.748;19.390;2023-04-06T13:06:02;8.50;;;4.60;;
22131;SDS011;11232;51.748;19.390;2023-04-06T13:08:28;6.57;;;4.23;;
22131;SDS011;11232;51.748;19.390;2023-04-06T13:10:54;7.80;;;4.13;;
22131;SDS011;11232;51.748;19.390;2023-04-06T13:13:28;7.27;;;3.93;;
22131;SDS011;11232;51.748;19.390;2023-04-06T13:15:55;8.53;;;4.47;;
22131;SDS011;11232;51.748;19.390;2023-04-06T13:18:21;10.90;;;4.43;;
22131;SDS011;11232;51.748;19.390;2023-04-06T13:20:48;7.70;;;4.03;;
22131;SDS011;11232;51.748;19.390;2023-04-06T13:23:14;7.97;;;4.17;;
22131;SDS011;11232;51.748;19.390;2023-04-06T13:25:41;10.27;;;4.83;;
22131;SDS011;11232;51.748;19.390;2023-04-06T13:28:07;7.07;;;4.53;;
22131;SDS011;11232;51.748;19.390;2023-04-06T13:30:33;6.87;;;4.43;;
22131;SDS011;11232;51.748;19.390;2023-04-06T13:32:59;7.70;;;4.43;;
22131;SDS011;11232;51.748;19.390;2023-04-06T13:35:25;7.20;;;4.27;;
22131;SDS011;11232;51.748;19.390;2023-04-06T13:37:51;6.10;;;4.23;;
22131;SDS011;11232;51.748;19.390;2023-04-06T13:40:17;12.20;;;4.40;;
22131;SDS011;11232;51.748;19.390;2023-04-06T13:42:44;7.37;;;4.23;;
22131;SDS011;11232;51.748;19.390;2023-04-06T13:45:11;8.90;;;4.17;;
22131;SDS011;11232;51.748;19.390;2023-04-06T13:47:37;6.40;;;4.03;;
22131;SDS011;11232;51.748;19.390;2023-04-06T13:50:03;9.43;;;4.50;;
22131;SDS011;11232;51.748;19.390;2023-04-06T13:52:29;7.77;;;4.53;;
22131;SDS011;11232;51.748;19.390;2023-04-06T13:54:55;8.87;;;4.67;;
22131;SDS011;11232;51.748;19.390;2023-04-06T13:57:21;6.43;;;4.20;;
22131;SDS011;11232;51.748;19.390;2023-04-06T13:59:47;7.83;;;4.33;;
22131;SDS011;11232;51.748;19.390;2023-04-06T14:02:15;7.13;;;4.43;;
22131;SDS011;11232;51.748;19.390;2023-04-06T14:04:41;9.17;;;4.83;;
22131;SDS011;11232;51.748;19.390;2023-04-06T14:07:07;8.23;;;4.57;;
22131;SDS011;11232;51.748;19.390;2023-04-06T14:09:33;7.53;;;4.53;;
22131;SDS011;11232;51.748;19.390;2023-04-06T14:11:59;10.40;;;5.87;;
22131;SDS011;11232;51.748;19.390;2023-04-06T14:14:25;9.93;;;4.60;;
22131;SDS011;11232;51.748;19.390;2023-04-06T14:16:51;9.07;;;5.27;;
22131;SDS011;11232;51.748;19.390;2023-04-06T14:19:19;10.27;;;4.73;;
22131;SDS011;11232;51.748;19.390;2023-04-06T14:21:46;10.23;;;5.27;;